Time;durP1;ratioP1;P1;durP2;ratioP2;P2;SDS_P1;SDS_P2;PMS_P1;PMS_P2;Temp;Humidity;BMP_temperature;BMP_pressure;BME280_temperature;BME280_humidity;BME280_pressure;Samples;Min_cycle;Max_cycle;Signal;HPM_P1;HPM_P2
2022/01/31 00:00:40;;;;;;;28.33;5.13;;;3.80;1.00;;;;;;4914628;29;20435;-51
2022/01/31 00:03:06;;;;;;;28.17;5.23;;;3.80;1.00;;;;;;4911159;29;20443;-51
2022/01/31 00:05:31;;;;;;;30.97;5.33;;;3.70;1.00;;;;;;4915268;29;20443;-51
2022/01/31 00:07:57;;;;;;;35.13;6.53;;;3.70;1.00;;;;;;4910026;29;20489;-52
2022/01/31 00:10:28;;;;;;;34.87;5.63;;;3.70;1.00;;;;;;4916508;29;20693;-52
2022/01/31 00:13:06;;;;;;;31.27;6.10;;;3.70;1.00;;;;;;4905700;29;20172;-52
2022/01/31 00:15:38;;;;;;;38.00;6.00;;;3.70;1.00;;;;;;4914146;29;20934;-51
2022/01/31 00:18:05;;;;;;;30.93;5.33;;;3.70;1.00;;;;;;4912267;29;20926;-51
2022/01/31 00:20:30;;;;;;;31.00;6.40;;;3.60;1.00;;;;;;4916449;29;20443;-51
2022/01/31 00:22:56;;;;;;;26.10;4.70;;;3.70;1.00;;;;;;4917529;29;20435;-51
2022/01/31 00:25:21;;;;;;;35.97;5.33;;;3.70;1.00;;;;;;4912587;29;20280;-51
2022/01/31 00:27:50;;;;;;;26.17;5.10;;;3.70;1.00;;;;;;4912911;29;20274;-52
2022/01/31 00:30:16;;;;;;;40.33;9.37;;;3.60;1.00;;;;;;4915928;29;20254;-51
2022/01/31 00:32:42;;;;;;;37.97;6.13;;;3.70;1.00;;;;;;4908042;29;20435;-51
2022/01/31 00:35:09;;;;;;;36.27;6.13;;;3.60;1.00;;;;;;4911166;29;20474;-52
2022/01/31 00:37:35;;;;;;;31.03;5.77;;;3.60;1.00;;;;;;4912560;29;20439;-51
2022/01/31 00:40:02;;;;;;;27.13;5.87;;;3.60;1.00;;;;;;4908281;29;20935;-51
2022/01/31 00:42:29;;;;;;;41.93;5.40;;;3.60;1.00;;;;;;4915743;29;20434;-51
2022/01/31 00:44:59;;;;;;;33.70;5.83;;;3.60;1.00;;;;;;4915401;29;20811;-51
2022/01/31 00:47:28;;;;;;;31.27;5.27;;;3.60;1.00;;;;;;4911585;29;20415;-51
2022/01/31 00:50:06;;;;;;;33.17;6.10;;;3.60;1.00;;;;;;4915179;29;20481;-51
2022/01/31 00:52:33;;;;;;;37.60;5.97;;;3.50;1.00;;;;;;4912066;29;20442;-51
2022/01/31 00:54:58;;;;;;;38.77;6.80;;;3.60;1.00;;;;;;4915408;29;20450;-51
2022/01/31 00:57:24;;;;;;;26.80;5.80;;;3.60;1.00;;;;;;4907924;29;20479;-52
2022/01/31 00:59:51;;;;;;;37.93;6.70;;;3.60;1.00;;;;;;4908128;29;20235;-51
2022/01/31 01:02:24;;;;;;;35.97;6.73;;;3.60;1.00;;;;;;4906707;29;20657;-50
2022/01/31 01:04:50;;;;;;;27.60;6.23;;;3.60;1.00;;;;;;4914922;29;20548;-50
2022/01/31 01:07:16;;;;;;;27.80;6.00;;;3.60;1.00;;;;;;4914244;29;20435;-51
2022/01/31 01:09:44;;;;;;;41.33;6.70;;;3.60;1.00;;;;;;4907590;29;20535;-51
2022/01/31 01:12:10;;;;;;;25.63;5.43;;;3.50;1.00;;;;;;4911979;29;20184;-52
2022/01/31 01:14:35;;;;;;;33.10;6.33;;;3.60;1.00;;;;;;4911512;29;20431;-51
2022/01/31 01:17:01;;;;;;;30.07;6.27;;;3.60;1.00;;;;;;4914713;29;20952;-52
2022/01/31 01:19:27;;;;;;;35.00;5.80;;;3.60;1.00;;;;;;4909730;29;20191;-52
2022/01/31 01:21:52;;;;;;;33.07;5.57;;;3.60;1.00;;;;;;4911887;29;20225;-52
2022/01/31 01:24:18;;;;;;;34.43;6.97;;;3.60;1.00;;;;;;4909059;29;20546;-51
2022/01/31 01:26:43;;;;;;;31.87;5.30;;;3.60;1.00;;;;;;4904351;29;20196;-51
2022/01/31 01:29:10;;;;;;;37.33;5.37;;;3.60;1.00;;;;;;4915028;29;20199;-52
2022/01/31 01:31:36;;;;;;;34.77;6.47;;;3.60;1.00;;;;;;4914500;29;20614;-51
2022/01/31 01:34:01;;;;;;;27.70;5.33;;;3.60;1.00;;;;;;4907005;29;20444;-51
2022/01/31 01:36:28;;;;;;;25.63;5.53;;;3.60;1.00;;;;;;4909100;29;20191;-51
2022/01/31 01:38:53;;;;;;;24.27;4.70;;;3.50;1.00;;;;;;4910665;29;20198;-51
2022/01/31 01:41:19;;;;;;;29.43;6.13;;;3.50;1.00;;;;;;4907740;29;20445;-50
2022/01/31 01:43:45;;;;;;;32.10;5.17;;;3.50;1.00;;;;;;4905437;29;20303;-52
2022/01/31 01:46:11;;;;;;;43.10;5.63;;;3.50;1.00;;;;;;4911398;29;20436;-52
2022/01/31 01:48:37;;;;;;;33.80;5.60;;;3.50;1.00;;;;;;4903911;29;20216;-51
2022/01/31 01:51:03;;;;;;;24.03;6.17;;;3.60;1.00;;;;;;4912714;29;20183;-51
2022/01/31 01:53:29;;;;;;;33.90;6.43;;;3.60;1.00;;;;;;4909681;29;20451;-52
2022/01/31 01:55:55;;;;;;;28.67;5.53;;;3.60;1.00;;;;;;4910219;29;20475;-51
2022/01/31 01:58:22;;;;;;;24.30;5.83;;;3.60;1.00;;;;;;4906978;29;20180;-51
2022/01/31 02:00:51;;;;;;;21.13;4.27;;;3.60;1.00;;;;;;4913124;29;20191;-52
2022/01/31 02:03:19;;;;;;;40.60;5.83;;;3.60;1.00;;;;;;4913444;29;20423;-51
2022/01/31 02:05:45;;;;;;;28.67;5.03;;;3.60;1.00;;;;;;4914171;29;20482;-51
2022/01/31 02:08:17;;;;;;;33.73;5.43;;;3.60;1.00;;;;;;4906446;29;20935;-51
2022/01/31 02:10:42;;;;;;;30.97;4.53;;;3.60;1.00;;;;;;4907983;29;20435;-51
2022/01/31 02:13:10;;;;;;;34.23;5.40;;;3.60;1.00;;;;;;4912318;29;20441;-51
2022/01/31 02:15:36;;;;;;;43.13;6.83;;;3.60;1.00;;;;;;4910632;29;20564;-51
2022/01/31 02:18:03;;;;;;;29.63;5.47;;;3.70;1.00;;;;;;4906228;29;20427;-51
2022/01/31 02:20:28;;;;;;;24.10;4.93;;;3.60;1.00;;;;;;4914325;29;20499;-51
2022/01/31 02:22:54;;;;;;;30.27;5.10;;;3.60;1.00;;;;;;4914371;29;20622;-51
2022/01/31 02:25:20;;;;;;;20.10;4.77;;;3.60;1.00;;;;;;4914704;29;20227;-51
2022/01/31 02:27:45;;;;;;;31.50;5.50;;;3.60;1.00;;;;;;4914094;29;20455;-51
2022/01/31 02:30:16;;;;;;;27.83;4.87;;;3.60;1.00;;;;;;4914288;29;20250;-51
2022/01/31 02:32:42;;;;;;;28.33;6.33;;;3.70;1.00;;;;;;4914364;29;20171;-51
2022/01/31 02:35:09;;;;;;;34.30;5.77;;;3.70;1.00;;;;;;4913946;29;20475;-51
2022/01/31 02:37:34;;;;;;;29.50;6.10;;;3.70;1.00;;;;;;4914312;29;20510;-51
2022/01/31 02:40:00;;;;;;;28.00;5.40;;;3.70;1.00;;;;;;4912859;29;20530;-50
2022/01/31 02:42:27;;;;;;;28.17;5.40;;;3.80;1.00;;;;;;4912294;29;20669;-51
2022/01/31 02:44:54;;;;;;;42.27;5.97;;;3.80;1.00;;;;;;4913162;29;20919;-51
2022/01/31 02:47:34;;;;;;;37.87;5.90;;;3.80;1.00;;;;;;4913978;29;20483;-51
2022/01/31 02:50:02;;;;;;;28.20;5.47;;;3.80;1.00;;;;;;4913617;29;20463;-51
2022/01/31 02:52:33;;;;;;;28.57;5.00;;;3.80;1.00;;;;;;4913935;29;20420;-51
2022/01/31 02:54:59;;;;;;;33.40;5.40;;;3.80;1.00;;;;;;4913791;29;20469;-51
2022/01/31 02:57:25;;;;;;;26.90;4.80;;;3.70;1.00;;;;;;4913907;29;20557;-51
2022/01/31 02:59:50;;;;;;;29.13;4.60;;;3.60;1.00;;;;;;4914155;29;20403;-51
2022/01/31 03:02:16;;;;;;;31.47;4.40;;;3.50;1.00;;;;;;4913978;29;20518;-51
2022/01/31 03:04:42;;;;;;;28.07;5.80;;;3.40;1.00;;;;;;4894847;29;20192;-51
2022/01/31 03:07:08;;;;;;;23.00;5.33;;;3.40;1.00;;;;;;4895012;29;20546;-52
2022/01/31 03:09:34;;;;;;;33.23;5.73;;;3.30;1.00;;;;;;4893480;29;20570;-51
2022/01/31 03:12:00;;;;;;;34.93;5.40;;;3.40;1.00;;;;;;4905478;29;20262;-51
2022/01/31 03:14:25;;;;;;;25.83;4.73;;;3.40;1.00;;;;;;4906132;29;20642;-51
2022/01/31 03:16:51;;;;;;;22.17;4.80;;;3.40;1.00;;;;;;4911927;29;20443;-51
2022/01/31 03:19:19;;;;;;;27.17;5.87;;;3.40;1.00;;;;;;4904482;29;20206;-51
2022/01/31 03:21:46;;;;;;;28.50;6.23;;;3.40;1.00;;;;;;4909891;29;20530;-51
2022/01/31 03:24:12;;;;;;;28.30;4.97;;;3.30;1.00;;;;;;4907915;29;20443;-52
2022/01/31 03:26:38;;;;;;;31.67;5.50;;;3.40;1.00;;;;;;4913472;29;20454;-50
2022/01/31 03:29:05;;;;;;;24.37;4.97;;;3.30;1.00;;;;;;4910730;29;20478;-51
2022/01/31 03:31:30;;;;;;;22.10;5.20;;;3.40;1.00;;;;;;4907510;29;20447;-51
2022/01/31 03:33:56;;;;;;;29.00;4.90;;;3.40;1.00;;;;;;4911251;29;20514;-51
2022/01/31 03:36:22;;;;;;;21.53;4.63;;;3.40;1.00;;;;;;4907034;29;20199;-51
2022/01/31 03:38:48;;;;;;;27.80;5.30;;;3.30;1.00;;;;;;4913079;29;21166;-52
2022/01/31 03:41:16;;;;;;;22.87;5.37;;;3.40;1.00;;;;;;4905842;29;20450;-52
2022/01/31 03:43:42;;;;;;;28.93;6.37;;;3.30;1.00;;;;;;4912843;29;20195;-51
2022/01/31 03:46:08;;;;;;;20.07;4.90;;;3.30;1.00;;;;;;4903183;29;20451;-51
2022/01/31 03:48:34;;;;;;;29.10;5.30;;;3.30;1.00;;;;;;4900324;29;20199;-52
2022/01/31 03:51:02;;;;;;;20.53;4.70;;;3.30;1.00;;;;;;4905720;29;20432;-52
2022/01/31 03:53:28;;;;;;;20.03;5.40;;;3.40;1.00;;;;;;4913153;29;20443;-51
2022/01/31 03:55:54;;;;;;;18.30;4.30;;;3.40;1.00;;;;;;4912870;29;21200;-51
2022/01/31 03:58:19;;;;;;;25.30;5.13;;;3.40;1.00;;;;;;4909527;29;20432;-51
2022/01/31 04:00:45;;;;;;;20.07;5.00;;;3.50;1.00;;;;;;4908031;29;20637;-51
2022/01/31 04:03:11;;;;;;;23.97;5.50;;;3.40;1.00;;;;;;4912564;29;20226;-51
2022/01/31 04:05:37;;;;;;;16.73;4.70;;;3.40;1.00;;;;;;4913099;29;20262;-51
2022/01/31 04:08:03;;;;;;;28.47;5.40;;;3.40;1.00;;;;;;4910003;29;20182;-51
2022/01/31 04:10:29;;;;;;;26.37;4.27;;;3.50;1.00;;;;;;4902044;29;20825;-51
2022/01/31 04:12:55;;;;;;;22.70;4.30;;;3.40;1.00;;;;;;4912027;29;20427;-51
2022/01/31 04:15:21;;;;;;;22.00;5.13;;;3.40;1.00;;;;;;4904169;29;20187;-52
2022/01/31 04:17:46;;;;;;;22.17;4.90;;;3.40;1.00;;;;;;4912429;29;20494;-52
2022/01/31 04:20:12;;;;;;;23.40;5.10;;;3.40;1.00;;;;;;4915099;29;20191;-54
2022/01/31 04:22:47;;;;;;;25.33;5.90;;;3.40;1.00;;;;;;4914507;29;20226;-51
2022/01/31 04:25:28;;;;;;;16.37;4.20;;;3.40;1.00;;;;;;4908856;29;20222;-51
2022/01/31 04:28:01;;;;;;;20.90;5.07;;;3.40;1.00;;;;;;4915983;29;20807;-51
2022/01/31 04:30:30;;;;;;;17.97;4.47;;;3.40;1.00;;;;;;4915713;29;20470;-51
2022/01/31 04:32:56;;;;;;;37.17;5.90;;;3.40;1.00;;;;;;4915835;29;20939;-52
2022/01/31 04:35:21;;;;;;;26.20;5.83;;;3.30;1.00;;;;;;4915670;29;20427;-51
2022/01/31 04:37:47;;;;;;;31.13;5.80;;;3.40;1.00;;;;;;4915865;29;20266;-51
2022/01/31 04:40:14;;;;;;;26.63;5.60;;;3.40;1.00;;;;;;4914295;29;20190;-51
2022/01/31 04:42:43;;;;;;;26.20;6.00;;;3.40;1.00;;;;;;4909986;29;20193;-51
2022/01/31 04:45:09;;;;;;;25.30;6.10;;;3.40;1.00;;;;;;4915423;29;20443;-51
2022/01/31 04:47:35;;;;;;;23.37;6.07;;;3.40;1.00;;;;;;4912681;29;20446;-52
2022/01/31 04:50:01;;;;;;;33.03;6.30;;;3.40;1.00;;;;;;4904802;29;21016;-50
2022/01/31 04:52:28;;;;;;;33.07;7.00;;;3.40;1.00;;;;;;4913318;29;20486;-51
2022/01/31 04:54:53;;;;;;;36.97;6.20;;;3.40;1.00;;;;;;4908136;29;20229;-51
2022/01/31 04:57:18;;;;;;;23.70;5.47;;;3.30;1.00;;;;;;4915095;29;20487;-52
2022/01/31 04:59:44;;;;;;;25.93;5.70;;;3.20;1.00;;;;;;4915411;29;20194;-51
2022/01/31 05:02:10;;;;;;;37.93;6.67;;;3.30;1.00;;;;;;4907617;29;20219;-51
2022/01/31 05:04:36;;;;;;;26.87;5.90;;;3.30;1.00;;;;;;4911318;29;20205;-51
2022/01/31 05:07:01;;;;;;;29.30;6.00;;;3.30;1.00;;;;;;4908547;29;20440;-51
2022/01/31 05:09:27;;;;;;;27.43;5.57;;;3.30;1.00;;;;;;4914946;29;20240;-51
2022/01/31 05:11:52;;;;;;;29.20;6.90;;;3.20;1.00;;;;;;4909324;29;20188;-51
2022/01/31 05:14:18;;;;;;;25.47;5.47;;;3.20;1.00;;;;;;4913395;29;20254;-51
2022/01/31 05:16:44;;;;;;;26.83;6.03;;;3.30;1.00;;;;;;4910440;29;20200;-51
2022/01/31 05:19:09;;;;;;;38.30;6.00;;;3.30;1.00;;;;;;4911371;29;20910;-51
2022/01/31 05:21:35;;;;;;;32.73;5.90;;;3.30;1.00;;;;;;4912443;29;20219;-52
2022/01/31 05:24:02;;;;;;;32.83;7.57;;;3.30;1.00;;;;;;4910521;29;20576;-51
2022/01/31 05:26:28;;;;;;;29.53;6.47;;;3.20;1.00;;;;;;4912863;29;20443;-51
2022/01/31 05:28:54;;;;;;;29.73;5.67;;;3.20;1.00;;;;;;4908001;29;20475;-51
2022/01/31 05:31:19;;;;;;;26.80;5.87;;;3.20;1.00;;;;;;4913580;29;20585;-51
2022/01/31 05:33:45;;;;;;;28.07;5.50;;;3.30;1.00;;;;;;4914857;29;20230;-51
2022/01/31 05:36:10;;;;;;;32.83;6.40;;;3.30;1.00;;;;;;4907490;29;20194;-53
2022/01/31 05:38:38;;;;;;;24.60;5.03;;;3.30;1.00;;;;;;4914436;29;20198;-52
2022/01/31 05:41:07;;;;;;;24.20;5.70;;;3.20;1.00;;;;;;4905890;29;20182;-52
2022/01/31 05:43:33;;;;;;;30.17;7.40;;;3.30;1.00;;;;;;4909544;29;20428;-51
2022/01/31 05:45:59;;;;;;;25.83;5.53;;;3.40;1.00;;;;;;4911630;29;20469;-51
2022/01/31 05:48:25;;;;;;;24.80;6.00;;;3.30;1.00;;;;;;4900593;29;20195;-51
2022/01/31 05:50:51;;;;;;;37.40;5.87;;;3.30;1.00;;;;;;4914864;29;20175;-51
2022/01/31 05:53:16;;;;;;;26.30;6.50;;;3.30;1.00;;;;;;4907044;29;20938;-52
2022/01/31 05:55:44;;;;;;;29.10;5.23;;;3.20;1.00;;;;;;4914324;29;20223;-51
2022/01/31 05:58:10;;;;;;;37.73;6.60;;;3.20;1.00;;;;;;4906999;29;20187;-51
2022/01/31 06:00:37;;;;;;;26.53;6.80;;;3.20;1.00;;;;;;4914026;29;20437;-51
2022/01/31 06:03:04;;;;;;;30.33;5.87;;;3.10;18.40;;;;;;4909188;29;20195;-52
2022/01/31 06:05:30;;;;;;;34.93;7.03;;;3.10;90.20;;;;;;4912101;29;20435;-52
2022/01/31 06:07:56;;;;;;;34.10;6.17;;;3.10;99.90;;;;;;4909988;29;20446;-51
2022/01/31 06:10:23;;;;;;;22.80;6.30;;;3.00;99.90;;;;;;4903384;29;21028;-51
2022/01/31 06:12:51;;;;;;;30.83;6.67;;;3.00;99.90;;;;;;4906019;29;20419;-52
2022/01/31 06:15:16;;;;;;;29.30;6.60;;;3.10;99.90;;;;;;4914216;29;20441;-51
2022/01/31 06:17:42;;;;;;;34.40;7.27;;;3.00;99.90;;;;;;4913994;29;20518;-51
2022/01/31 06:20:08;;;;;;;28.33;6.50;;;2.90;99.90;;;;;;4906464;29;20187;-51
2022/01/31 06:22:33;;;;;;;27.40;5.43;;;2.90;1.00;;;;;;4914031;29;20918;-51
2022/01/31 06:24:59;;;;;;;42.40;7.70;;;2.90;1.00;;;;;;4913924;29;20225;-51
2022/01/31 06:27:24;;;;;;;26.97;6.37;;;2.80;1.00;;;;;;4913676;29;20807;-51
2022/01/31 06:29:50;;;;;;;39.73;7.30;;;2.80;1.00;;;;;;4911836;29;20221;-51
2022/01/31 06:32:18;;;;;;;34.30;8.30;;;2.70;1.00;;;;;;4907378;29;20214;-51
2022/01/31 06:34:43;;;;;;;30.17;6.67;;;2.60;1.00;;;;;;4905014;29;20248;-51
2022/01/31 06:37:09;;;;;;;31.50;7.90;;;2.60;1.00;;;;;;4914028;29;20424;-51
2022/01/31 06:39:34;;;;;;;36.37;7.83;;;2.60;99.90;;;;;;4905987;29;20190;-51
2022/01/31 06:42:00;;;;;;;44.07;7.60;;;2.50;99.90;;;;;;4908695;29;20184;-52
2022/01/31 06:44:26;;;;;;;31.43;6.57;;;2.50;99.90;;;;;;4910313;29;20306;-52
2022/01/31 06:46:51;;;;;;;32.90;7.10;;;2.50;1.00;;;;;;4913445;29;20198;-51
2022/01/31 06:49:17;;;;;;;37.63;7.40;;;2.40;1.00;;;;;;4913625;29;20235;-51
2022/01/31 06:51:42;;;;;;;33.60;8.63;;;2.50;1.00;;;;;;4900970;29;20194;-52
2022/01/31 06:54:08;;;;;;;27.40;7.13;;;2.50;1.00;;;;;;4906318;29;20190;-51
2022/01/31 06:56:38;;;;;;;27.33;7.50;;;2.40;1.00;;;;;;4911886;29;20256;-51
2022/01/31 06:59:03;;;;;;;27.77;7.80;;;2.40;37.30;;;;;;4912618;29;20983;-51
2022/01/31 07:01:29;;;;;;;35.90;6.70;;;2.40;99.90;;;;;;4913491;29;20438;-51
2022/01/31 07:03:55;;;;;;;27.17;8.13;;;2.40;99.90;;;;;;4912040;29;20190;-51
2022/01/31 07:06:23;;;;;;;32.83;7.80;;;2.30;1.00;;;;;;4923804;29;20194;-52
2022/01/31 07:08:49;;;;;;;28.23;7.30;;;2.40;1.00;;;;;;4912813;29;20896;-52
2022/01/31 07:11:21;;;;;;;23.27;7.40;;;2.40;99.90;;;;;;4913161;29;20473;-51
2022/01/31 07:13:49;;;;;;;39.50;7.60;;;2.40;99.90;;;;;;4912924;29;20450;-51
2022/01/31 07:16:14;;;;;;;28.20;7.53;;;2.40;99.90;;;;;;4913273;29;20510;-52
2022/01/31 07:18:40;;;;;;;30.63;8.43;;;2.40;99.90;;;;;;4913221;29;20514;-51
2022/01/31 07:21:13;;;;;;;26.07;8.23;;;2.40;99.90;;;;;;4914435;29;20660;-52
2022/01/31 07:24:04;;;;;;;35.33;9.27;;;2.40;99.90;;;;;;4913597;29;20423;-52
2022/01/31 07:26:24;;;;;;;32.73;7.40;;;2.30;99.90;;;;;;4912889;29;20521;-53
2022/01/31 07:28:50;;;;;;;24.87;7.50;;;2.30;1.00;;;;;;4912644;29;20895;-52
2022/01/31 07:31:16;;;;;;;29.93;7.20;;;2.30;12.00;;;;;;4903644;29;20187;-52
2022/01/31 07:33:42;;;;;;;28.93;7.80;;;2.30;99.90;;;;;;4902751;29;20242;-52
2022/01/31 07:36:09;;;;;;;32.43;8.17;;;2.30;99.90;;;;;;4912962;29;20781;-51
2022/01/31 07:38:34;;;;;;;33.57;8.27;;;2.20;99.90;;;;;;4913414;29;20477;-52
2022/01/31 07:41:00;;;;;;;35.90;8.80;;;2.20;15.50;;;;;;4913607;29;20423;-52
2022/01/31 07:43:26;;;;;;;34.23;8.70;;;2.20;99.90;;;;;;4916776;29;20207;-52
2022/01/31 07:45:51;;;;;;;38.30;9.53;;;2.20;1.00;;;;;;4935363;29;20234;-52
2022/01/31 07:48:17;;;;;;;38.87;9.20;;;2.20;55.90;;;;;;4925927;29;21053;-52
2022/01/31 07:50:42;;;;;;;38.97;9.47;;;2.20;99.90;;;;;;4915433;29;20199;-52
2022/01/31 07:53:09;;;;;;;29.77;8.70;;;2.20;1.00;;;;;;4917064;29;20176;-52
2022/01/31 07:55:35;;;;;;;33.03;8.30;;;2.20;1.00;;;;;;4915695;29;20649;-51
2022/01/31 07:58:01;;;;;;;32.73;8.70;;;2.20;66.10;;;;;;4925136;29;20441;-52
2022/01/31 08:00:27;;;;;;;44.60;9.00;;;2.20;93.20;;;;;;4936251;29;20192;-52
2022/01/31 08:02:53;;;;;;;33.00;8.53;;;2.20;99.90;;;;;;4919782;29;20423;-53
2022/01/31 08:05:21;;;;;;;30.07;8.10;;;2.20;1.00;;;;;;4916971;29;20190;-51
2022/01/31 08:07:47;;;;;;;27.40;8.33;;;2.30;99.90;;;;;;4916702;29;20885;-52
2022/01/31 08:10:13;;;;;;;29.10;8.87;;;2.30;1.00;;;;;;4913010;29;20474;-52
2022/01/31 08:12:41;;;;;;;30.37;9.47;;;2.30;99.90;;;;;;4916508;29;20447;-52
2022/01/31 08:15:09;;;;;;;40.57;9.17;;;2.20;1.00;;;;;;4915399;29;20202;-52
2022/01/31 08:17:34;;;;;;;41.23;8.80;;;2.20;99.90;;;;;;4915919;29;20796;-52
2022/01/31 08:20:01;;;;;;;27.33;7.30;;;2.20;99.90;;;;;;4915745;29;20473;-52
2022/01/31 08:22:27;;;;;;;25.83;8.80;;;2.30;59.60;;;;;;4915820;29;20249;-51
2022/01/31 08:24:52;;;;;;;23.70;8.00;;;2.20;1.00;;;;;;4916117;29;20894;-52
2022/01/31 08:27:18;;;;;;;37.60;8.90;;;2.20;1.00;;;;;;4908602;29;20202;-52
2022/01/31 08:29:43;;;;;;;19.40;8.77;;;2.20;1.00;;;;;;4908595;29;20218;-52
2022/01/31 08:32:18;;;;;;;37.47;9.30;;;2.30;99.90;;;;;;4914565;29;20195;-52
2022/01/31 08:37:28;;;;;;;31.23;9.50;;;2.40;1.00;;;;;;4916282;29;21045;-52
2022/01/31 08:39:54;;;;;;;25.60;8.83;;;2.40;28.80;;;;;;4915888;29;20435;-51
2022/01/31 08:42:20;;;;;;;24.37;8.33;;;2.40;1.00;;;;;;4912286;29;20580;-50
2022/01/31 08:44:49;;;;;;;24.90;9.80;;;2.50;99.90;;;;;;4916298;29;20191;-51
2022/01/31 08:47:15;;;;;;;38.17;10.67;;;2.50;1.00;;;;;;4911123;29;20208;-52
2022/01/31 08:49:40;;;;;;;30.80;10.43;;;2.50;1.00;;;;;;4919537;29;20482;-51
2022/01/31 08:52:06;;;;;;;31.37;9.63;;;2.60;1.00;;;;;;4927448;29;20179;-50
2022/01/31 08:54:32;;;;;;;31.07;10.60;;;2.60;51.90;;;;;;4927726;29;20551;-51
2022/01/31 08:56:58;;;;;;;34.37;10.93;;;2.60;49.40;;;;;;4934560;29;20237;-51
2022/01/31 08:59:25;;;;;;;23.50;10.53;;;2.60;1.00;;;;;;4927632;29;20476;-51
2022/01/31 09:01:54;;;;;;;25.33;9.73;;;2.60;99.90;;;;;;4915967;29;20614;-51
2022/01/31 09:04:33;;;;;;;30.73;11.70;;;2.60;1.00;;;;;;4908220;29;20786;-50
2022/01/31 09:06:59;;;;;;;30.50;11.30;;;2.60;11.60;;;;;;4896838;29;20438;-50
2022/01/31 09:09:25;;;;;;;26.83;9.77;;;2.60;1.00;;;;;;4909718;29;20522;-50
2022/01/31 09:11:50;;;;;;;32.80;11.03;;;2.60;99.90;;;;;;4916573;29;20840;-50
2022/01/31 09:14:16;;;;;;;24.90;9.27;;;2.60;1.00;;;;;;4919794;29;20263;-50
2022/01/31 09:16:43;;;;;;;29.40;9.43;;;2.70;1.00;;;;;;4915899;29;20243;-51
2022/01/31 09:19:09;;;;;;;26.10;10.33;;;2.60;99.90;;;;;;4915777;29;20187;-50
2022/01/31 09:21:34;;;;;;;25.97;10.23;;;2.60;99.90;;;;;;4914710;29;20438;-50
2022/01/31 09:24:00;;;;;;;26.37;10.07;;;2.60;99.90;;;;;;4915254;29;20274;-50
2022/01/31 09:26:26;;;;;;;30.30;9.97;;;2.60;99.90;;;;;;4915102;29;20215;-49
2022/01/31 09:28:53;;;;;;;34.33;10.73;;;2.60;71.90;;;;;;4915089;29;20210;-49
2022/01/31 09:31:20;;;;;;;29.40;10.17;;;2.70;99.90;;;;;;4915163;29;20828;-49
2022/01/31 09:33:47;;;;;;;31.20;10.97;;;2.70;1.00;;;;;;4914666;29;20407;-50
2022/01/31 09:36:12;;;;;;;34.87;10.07;;;2.70;41.10;;;;;;4915153;29;20431;-50
2022/01/31 09:38:40;;;;;;;28.97;10.80;;;2.70;32.10;;;;;;4914051;29;20427;-51
2022/01/31 09:41:06;;;;;;;24.43;9.93;;;2.70;99.90;;;;;;4904780;29;20192;-51
2022/01/31 09:48:44;;;;;;;28.27;9.93;;;2.80;99.90;;;;;;4914211;29;20427;-49
2022/01/31 09:51:11;;;;;;;29.00;10.20;;;2.80;6.20;;;;;;4915360;29;20467;-50
2022/01/31 09:53:51;;;;;;;27.73;9.63;;;2.80;1.00;;;;;;4915393;29;20419;-51
2022/01/31 09:56:23;;;;;;;20.80;10.07;;;2.80;99.90;;;;;;4914838;29;20478;-51
2022/01/31 09:58:51;;;;;;;24.87;10.10;;;2.80;1.00;;;;;;4915381;29;20430;-50
2022/01/31 10:01:19;;;;;;;23.60;9.37;;;2.80;1.00;;;;;;4918295;29;20450;-50
2022/01/31 10:03:45;;;;;;;22.27;9.83;;;2.90;99.90;;;;;;4912542;29;20442;-50
2022/01/31 10:06:32;;;;;;;28.40;10.83;;;3.00;1.00;;;;;;4912558;29;20527;-51
2022/01/31 10:09:03;;;;;;;23.20;9.80;;;3.10;55.10;;;;;;4914250;29;20899;-50
2022/01/31 10:11:38;;;;;;;19.90;8.73;;;3.30;1.00;;;;;;4914603;29;20457;-50
2022/01/31 10:17:20;;;;;;;22.03;8.37;;;3.50;99.90;;;;;;4906734;29;20433;-50
2022/01/31 10:19:45;;;;;;;22.27;8.90;;;3.60;99.90;;;;;;4906960;29;20491;-50
2022/01/31 10:22:14;;;;;;;20.27;9.30;;;3.60;1.00;;;;;;4914525;29;20557;-50
2022/01/31 10:24:45;;;;;;;19.47;9.30;;;3.70;1.00;;;;;;4914427;29;20187;-50
2022/01/31 10:27:23;;;;;;;18.07;8.87;;;3.60;1.00;;;;;;4906745;29;20440;-50
2022/01/31 10:29:51;;;;;;;21.33;8.70;;;3.60;1.00;;;;;;4913929;29;20474;-50
2022/01/31 10:32:33;;;;;;;17.67;9.03;;;3.60;99.90;;;;;;4914226;29;20438;-50
2022/01/31 10:35:02;;;;;;;19.43;8.43;;;3.50;99.90;;;;;;4914025;29;20533;-50
2022/01/31 10:37:30;;;;;;;22.43;9.73;;;3.40;99.90;;;;;;4909462;29;20450;-50
2022/01/31 10:53:46;;;;;;;20.53;9.50;;;3.40;1.00;;;;;;4923794;29;20426;-50
2022/01/31 10:56:12;;;;;;;17.63;9.70;;;3.40;1.00;;;;;;4913398;29;20533;-50
2022/01/31 10:59:01;;;;;;;15.27;8.80;;;3.30;1.00;;;;;;4910656;29;20448;-51
2022/01/31 11:01:27;;;;;;;13.67;7.20;;;3.40;1.00;;;;;;4911261;29;20258;-50
2022/01/31 11:03:54;;;;;;;14.87;8.37;;;4.30;99.90;;;;;;4912598;29;20427;-50
2022/01/31 11:06:23;;;;;;;12.50;7.43;;;5.50;99.90;;;;;;4913071;29;20434;-50
2022/01/31 11:08:48;;;;;;;10.83;7.20;;;6.50;99.90;;;;;;4910808;29;20443;-52
2022/01/31 11:11:14;;;;;;;15.00;7.67;;;7.00;99.90;;;;;;4905407;29;20439;-51
2022/01/31 11:13:40;;;;;;;11.73;7.07;;;7.30;99.90;;;;;;4913234;29;20818;-50
2022/01/31 11:16:08;;;;;;;12.00;6.57;;;7.50;1.00;;;;;;4909286;29;20558;-50
2022/01/31 11:18:35;;;;;;;13.47;7.10;;;7.80;1.00;;;;;;4917543;29;20208;-55
2022/01/31 11:21:06;;;;;;;12.97;7.10;;;8.10;99.90;;;;;;4909460;29;20471;-57
2022/01/31 11:23:40;;;;;;;13.83;7.33;;;8.10;1.00;;;;;;4917690;29;20443;-57
2022/01/31 11:26:08;;;;;;;23.30;8.03;;;8.30;99.90;;;;;;4917245;29;20430;-56
2022/01/31 11:28:34;;;;;;;14.40;7.67;;;8.20;99.90;;;;;;4924668;29;20521;-56
2022/01/31 11:31:02;;;;;;;14.37;7.37;;;8.20;99.90;;;;;;4917124;29;20490;-56
2022/01/31 11:33:28;;;;;;;11.13;6.47;;;8.40;99.90;;;;;;4917489;29;20435;-56
2022/01/31 11:35:54;;;;;;;11.87;6.37;;;8.10;1.00;;;;;;4917798;29;20442;-57
2022/01/31 11:38:20;;;;;;;12.30;6.93;;;7.90;79.20;;;;;;4917804;29;20490;-56
2022/01/31 11:40:46;;;;;;;10.23;6.10;;;7.90;99.90;;;;;;4917583;29;20528;-56
2022/01/31 11:43:13;;;;;;;15.70;6.20;;;7.90;99.90;;;;;;4917441;29;20183;-56
2022/01/31 11:45:41;;;;;;;11.97;5.30;;;7.90;99.90;;;;;;4896829;29;20809;-57
2022/01/31 11:48:29;;;;;;;16.20;6.23;;;7.90;99.90;;;;;;4916958;29;20451;-56
2022/01/31 11:50:58;;;;;;;11.33;4.80;;;8.10;99.90;;;;;;4915417;29;20477;-56
2022/01/31 11:53:36;;;;;;;13.20;4.87;;;8.20;41.30;;;;;;4917098;29;21129;-56
2022/01/31 11:56:22;;;;;;;13.80;4.93;;;8.20;99.90;;;;;;4911454;29;21132;-56
2022/01/31 11:58:53;;;;;;;14.00;5.53;;;8.20;99.90;;;;;;4916528;29;20812;-57
2022/01/31 12:01:20;;;;;;;11.23;4.73;;;8.30;99.90;;;;;;4920953;29;20486;-55
2022/01/31 12:03:57;;;;;;;7.73;4.73;;;8.20;40.10;;;;;;4906097;29;20438;-56
2022/01/31 12:06:25;;;;;;;8.30;5.00;;;8.20;32.40;;;;;;4907546;29;21008;-48
2022/01/31 12:09:03;;;;;;;11.10;5.60;;;7.70;1.00;;;;;;4912581;29;20457;-49
2022/01/31 12:11:30;;;;;;;9.90;5.10;;;6.90;1.00;;;;;;4913789;29;20554;-48
2022/01/31 12:14:01;;;;;;;7.47;5.40;;;6.30;1.00;;;;;;4915795;29;20850;-48
2022/01/31 12:17:07;;;;;;;10.33;5.10;;;5.70;1.00;;;;;;4916094;29;20956;-48
2022/01/31 12:19:46;;;;;;;14.43;5.53;;;5.30;26.20;;;;;;4912271;29;20561;-48
2022/01/31 12:22:41;;;;;;;16.63;5.57;;;5.00;99.50;;;;;;4914601;29;20438;-48
2022/01/31 12:25:24;;;;;;;10.77;5.20;;;4.70;99.90;;;;;;4914425;29;20431;-48
2022/01/31 12:27:50;;;;;;;10.67;5.50;;;4.60;99.90;;;;;;4914778;29;20505;-48
2022/01/31 12:30:34;;;;;;;8.77;5.37;;;4.60;99.90;;;;;;4915458;29;20467;-48
2022/01/31 12:33:01;;;;;;;8.80;5.57;;;4.50;99.90;;;;;;4915788;29;20526;-48
2022/01/31 12:35:37;;;;;;;10.43;5.47;;;4.40;99.90;;;;;;4915688;29;20461;-48
2022/01/31 12:38:05;;;;;;;11.73;5.20;;;4.30;99.90;;;;;;4904978;29;20470;-48
2022/01/31 12:40:41;;;;;;;13.00;5.93;;;4.20;99.90;;;;;;4920233;29;20806;-48
2022/01/31 12:43:47;;;;;;;17.67;5.80;;;4.20;1.00;;;;;;4915097;29;20434;-48
2022/01/31 12:46:16;;;;;;;9.67;5.73;;;4.30;1.00;;;;;;4915490;29;20441;-48
2022/01/31 12:48:43;;;;;;;11.23;6.33;;;4.40;1.00;;;;;;4915569;29;20447;-48
2022/01/31 12:51:13;;;;;;;10.10;6.27;;;4.30;1.00;;;;;;4915397;29;20431;-48
2022/01/31 12:53:43;;;;;;;11.93;6.23;;;4.40;1.00;;;;;;4912452;29;20475;-48
2022/01/31 12:56:25;;;;;;;11.27;6.80;;;4.50;1.00;;;;;;4919623;29;20478;-48
2022/01/31 12:59:01;;;;;;;9.50;6.43;;;4.50;1.00;;;;;;4918807;29;20499;-48
2022/01/31 13:01:33;;;;;;;10.30;6.23;;;4.50;99.90;;;;;;4919063;29;20476;-48
2022/01/31 13:04:02;;;;;;;9.80;5.33;;;4.40;99.90;;;;;;4917433;29;20431;-48
2022/01/31 13:06:50;;;;;;;10.87;6.17;;;4.40;99.90;;;;;;4917274;29;20454;-48
2022/01/31 13:09:26;;;;;;;10.27;6.40;;;4.40;1.00;;;;;;4906584;29;20676;-48
2022/01/31 13:11:57;;;;;;;11.70;6.63;;;4.50;1.00;;;;;;4911577;29;20441;-48
2022/01/31 13:14:28;;;;;;;12.47;6.43;;;4.50;1.00;;;;;;4916459;29;20424;-48
2022/01/31 13:19:33;;;;;;;9.53;6.80;;;4.50;1.00;;;;;;4917364;29;20450;-48
2022/01/31 13:22:02;;;;;;;15.40;7.57;;;4.50;1.00;;;;;;4910951;29;20803;-48
2022/01/31 13:24:41;;;;;;;12.13;7.70;;;4.50;1.00;;;;;;4909535;29;20466;-48